Time;durP1;ratioP1;P1;durP2;ratioP2;P2;SDS_P1;SDS_P2;PMS_P1;PMS_P2;Temp;Humidity;BMP_temperature;BMP_pressure;BME280_temperature;BME280_humidity;BME280_pressure;Samples;Min_cycle;Max_cycle;Signal;HPM_P1;HPM_P2
2023/05/08 00:00:43;;;;;;;918.60;831.00;;;14.30;99.90;;;;;;6216365;23;20412;-87
2023/05/08 00:03:10;;;;;;;922.10;836.70;;;14.30;99.90;;;;;;6216891;23;20396;-88
2023/05/08 00:05:41;;;;;;;925.93;841.50;;;14.20;99.90;;;;;;6226635;23;20916;-88
2023/05/08 00:08:08;;;;;;;923.87;840.40;;;14.20;99.90;;;;;;6217146;23;20564;-87
2023/05/08 00:10:35;;;;;;;913.13;830.53;;;14.00;99.90;;;;;;6226488;23;20466;-88
2023/05/08 00:13:02;;;;;;;915.60;832.83;;;14.10;99.90;;;;;;6226135;23;20954;-87
2023/05/08 00:15:28;;;;;;;918.67;836.30;;;14.00;99.90;;;;;;6216912;23;20441;-88
2023/05/08 00:17:58;;;;;;;906.87;824.90;;;14.00;99.90;;;;;;6226279;23;20420;-87
2023/05/08 00:20:25;;;;;;;897.57;815.80;;;13.90;99.90;;;;;;6217119;23;20466;-87
2023/05/08 00:22:54;;;;;;;899.37;818.23;;;13.80;99.90;;;;;;6216489;23;20432;-88
2023/05/08 00:25:21;;;;;;;900.07;819.27;;;13.90;99.90;;;;;;6216592;23;20420;-88
2023/05/08 00:27:47;;;;;;;876.90;798.00;;;13.80;99.90;;;;;;6226307;23;20718;-88
2023/05/08 00:30:15;;;;;;;864.93;787.60;;;13.90;99.90;;;;;;6216022;23;20459;-87
2023/05/08 00:32:41;;;;;;;867.63;790.77;;;13.80;99.90;;;;;;6226748;23;20443;-87
2023/05/08 00:35:09;;;;;;;872.20;794.93;;;13.80;99.90;;;;;;6216874;23;20413;-88
2023/05/08 00:37:36;;;;;;;858.70;780.70;;;13.70;99.90;;;;;;6216528;23;20414;-88
2023/05/08 00:40:06;;;;;;;850.43;771.57;;;13.80;99.90;;;;;;6226072;23;20451;-88
2023/05/08 00:42:32;;;;;;;869.13;788.60;;;13.80;99.90;;;;;;6226729;23;20408;-88
2023/05/08 00:44:59;;;;;;;857.67;777.90;;;13.90;99.90;;;;;;6216013;23;20412;-87
2023/05/08 00:47:26;;;;;;;870.83;789.83;;;13.80;99.90;;;;;;6226401;23;20408;-88
2023/05/08 00:49:53;;;;;;;868.73;787.53;;;13.80;99.90;;;;;;6216623;23;20421;-87
2023/05/08 00:52:21;;;;;;;880.27;798.67;;;13.80;99.90;;;;;;6216603;23;20443;-88
2023/05/08 00:54:48;;;;;;;886.00;802.73;;;13.90;99.90;;;;;;6226718;23;20419;-88
2023/05/08 00:57:18;;;;;;;882.37;799.43;;;13.80;99.90;;;;;;6216500;23;20508;-88
2023/05/08 00:59:46;;;;;;;876.70;792.93;;;13.80;99.90;;;;;;6215917;23;20447;-87
2023/05/08 01:02:13;;;;;;;878.30;795.53;;;13.80;99.90;;;;;;6225786;23;20972;-87
2023/05/08 01:04:43;;;;;;;891.97;806.73;;;13.80;99.90;;;;;;6226222;23;20436;-88
2023/05/08 01:07:11;;;;;;;880.77;795.97;;;13.70;99.90;;;;;;6216731;23;20448;-87
2023/05/08 01:09:38;;;;;;;878.70;792.53;;;13.90;99.90;;;;;;6216416;23;20422;-88
2023/05/08 01:12:24;;;;;;;871.00;783.83;;;13.80;99.90;;;;;;6226010;23;20462;-88
2023/05/08 01:15:15;;;;;;;877.20;789.70;;;13.80;99.90;;;;;;6216556;23;20473;-87
2023/05/08 01:18:00;;;;;;;864.33;777.10;;;13.80;99.90;;;;;;6216316;23;20397;-88
2023/05/08 01:20:36;;;;;;;869.97;782.27;;;13.70;99.90;;;;;;6226691;23;20390;-88
2023/05/08 01:23:24;;;;;;;860.50;772.20;;;13.70;99.90;;;;;;6216763;23;20399;-88
2023/05/08 01:26:20;;;;;;;861.17;772.87;;;13.80;99.90;;;;;;6225802;23;20412;-88
2023/05/08 01:29:20;;;;;;;869.83;781.00;;;13.80;99.90;;;;;;6225911;23;20470;-88
2023/05/08 01:32:12;;;;;;;857.57;770.20;;;13.80;99.90;;;;;;6206415;23;20416;-88
2023/05/08 01:34:46;;;;;;;884.00;796.20;;;13.80;99.90;;;;;;6226545;23;20412;-87
2023/05/08 01:37:17;;;;;;;881.57;793.87;;;13.70;99.90;;;;;;6226222;23;20447;-88
2023/05/08 01:39:50;;;;;;;860.27;772.67;;;13.70;99.90;;;;;;6226167;23;20411;-88
2023/05/08 01:42:26;;;;;;;862.30;774.97;;;13.70;99.90;;;;;;6226310;23;20445;-87
2023/05/08 01:44:57;;;;;;;858.33;772.00;;;13.70;99.90;;;;;;6216114;23;20423;-88
2023/05/08 01:47:29;;;;;;;860.60;774.17;;;13.60;99.90;;;;;;6226085;23;20412;-88
2023/05/08 01:50:04;;;;;;;865.67;778.50;;;13.50;99.90;;;;;;6216234;23;20743;-88
2023/05/08 01:52:35;;;;;;;874.90;786.83;;;13.50;99.90;;;;;;6215993;23;20420;-88
2023/05/08 01:55:07;;;;;;;888.60;799.60;;;13.50;99.90;;;;;;6216135;23;20602;-87
2023/05/08 01:57:38;;;;;;;890.87;801.37;;;13.50;99.90;;;;;;6225628;23;20419;-87
2023/05/08 02:00:07;;;;;;;873.07;784.30;;;13.40;99.90;;;;;;6216169;23;20428;-87
2023/05/08 02:02:36;;;;;;;880.20;790.73;;;13.50;99.90;;;;;;6193987;23;20416;-88
2023/05/08 02:05:06;;;;;;;869.30;780.80;;;13.50;99.90;;;;;;6185760;23;20417;-88
2023/05/08 02:07:36;;;;;;;865.63;778.83;;;13.50;99.90;;;;;;6186099;23;20499;-88
2023/05/08 02:10:05;;;;;;;855.30;769.00;;;13.40;99.90;;;;;;6186108;23;20861;-87
2023/05/08 02:12:33;;;;;;;845.07;760.40;;;13.30;99.90;;;;;;6195564;23;20456;-87
2023/05/08 02:15:01;;;;;;;855.93;771.17;;;13.20;99.90;;;;;;6195758;23;20464;-88
2023/05/08 02:17:30;;;;;;;849.63;764.53;;;13.30;99.90;;;;;;6194981;23;20417;-88
2023/05/08 02:20:00;;;;;;;851.73;766.70;;;13.30;99.90;;;;;;6195125;23;20409;-88
2023/05/08 02:22:28;;;;;;;849.67;763.63;;;13.30;99.90;;;;;;6195293;23;20782;-88
2023/05/08 02:24:57;;;;;;;854.70;768.50;;;13.30;99.90;;;;;;6185365;23;20417;-87
2023/05/08 02:27:27;;;;;;;856.83;769.73;;;13.30;99.90;;;;;;6195355;23;20719;-87
2023/05/08 02:29:55;;;;;;;849.87;763.47;;;13.40;99.90;;;;;;6185754;23;20447;-88
2023/05/08 02:32:25;;;;;;;851.67;765.07;;;13.20;99.90;;;;;;6187769;23;20940;-87
2023/05/08 02:34:55;;;;;;;862.10;774.00;;;13.20;99.90;;;;;;6196503;23;20409;-88
2023/05/08 02:37:24;;;;;;;893.77;802.40;;;13.20;99.90;;;;;;6196808;23;20922;-87
2023/05/08 02:39:53;;;;;;;879.67;787.00;;;13.20;99.90;;;;;;6196696;23;20443;-87
2023/05/08 02:42:20;;;;;;;879.57;787.87;;;13.30;99.90;;;;;;6186833;23;20500;-88
2023/05/08 02:44:47;;;;;;;885.43;793.67;;;13.20;99.90;;;;;;6196377;23;20537;-86
2023/05/08 02:47:21;;;;;;;884.83;791.73;;;13.30;99.90;;;;;;6186642;23;20499;-85
2023/05/08 02:49:53;;;;;;;870.50;778.93;;;13.30;99.90;;;;;;6196095;23;20416;-87
2023/05/08 02:52:28;;;;;;;855.57;763.70;;;13.30;99.90;;;;;;6186666;23;20397;-89
2023/05/08 02:54:59;;;;;;;871.30;779.23;;;13.30;99.90;;;;;;6195967;23;20415;-88
2023/05/08 02:57:36;;;;;;;849.87;759.80;;;13.30;99.90;;;;;;6186528;23;20401;-87
2023/05/08 03:00:07;;;;;;;838.37;748.37;;;13.30;99.90;;;;;;6196690;23;20501;-88
2023/05/08 03:02:40;;;;;;;844.40;754.83;;;13.20;99.90;;;;;;6210684;23;20419;-88
2023/05/08 03:05:15;;;;;;;844.67;755.17;;;13.30;99.90;;;;;;6216629;23;20396;-87
2023/05/08 03:07:45;;;;;;;826.83;737.17;;;13.20;99.90;;;;;;6216249;23;20400;-87
2023/05/08 03:10:14;;;;;;;821.10;730.80;;;13.20;99.90;;;;;;6215901;23;20499;-87
2023/05/08 03:12:45;;;;;;;822.03;732.47;;;13.10;99.90;;;;;;6216417;23;20408;-87
2023/05/08 03:15:25;;;;;;;827.17;737.97;;;13.10;99.90;;;;;;6216383;23;20414;-87
2023/05/08 03:17:55;;;;;;;830.27;740.60;;;13.10;99.90;;;;;;6215902;23;20403;-87
2023/05/08 03:20:24;;;;;;;832.20;742.40;;;13.00;99.90;;;;;;6215750;23;21005;-87
2023/05/08 03:22:55;;;;;;;837.50;747.23;;;12.90;99.90;;;;;;6217682;23;20675;-90
2023/05/08 03:25:23;;;;;;;833.90;743.10;;;12.80;99.90;;;;;;6217735;23;20735;-87
2023/05/08 03:27:51;;;;;;;842.80;751.70;;;12.80;99.90;;;;;;6216276;23;20444;-87
2023/05/08 03:30:20;;;;;;;838.77;747.67;;;12.70;99.90;;;;;;6215848;23;20914;-88
2023/05/08 03:32:49;;;;;;;845.57;753.57;;;12.70;99.90;;;;;;6225797;23;20970;-88
2023/05/08 03:35:17;;;;;;;845.67;753.17;;;12.60;99.90;;;;;;6225996;23;20416;-87
2023/05/08 03:37:44;;;;;;;861.93;769.03;;;12.60;99.90;;;;;;6216316;23;20422;-88
2023/05/08 03:40:13;;;;;;;826.47;736.63;;;12.50;99.90;;;;;;6226093;23;20422;-89
2023/05/08 03:42:41;;;;;;;842.70;753.70;;;12.40;99.90;;;;;;6226016;23;20408;-88
2023/05/08 03:45:10;;;;;;;839.37;750.33;;;12.20;99.90;;;;;;6216344;23;20455;-87
2023/05/08 03:47:38;;;;;;;838.40;749.50;;;12.20;99.90;;;;;;6225714;23;20470;-87
2023/05/08 03:50:06;;;;;;;833.90;744.83;;;12.20;99.90;;;;;;6225644;23;20439;-87
2023/05/08 03:52:33;;;;;;;814.87;726.87;;;12.20;99.90;;;;;;6225559;23;20416;-87
2023/05/08 03:55:00;;;;;;;813.77;725.70;;;12.10;99.90;;;;;;6215239;23;20440;-86
2023/05/08 03:57:35;;;;;;;820.10;731.53;;;12.10;99.90;;;;;;6225732;23;20478;-87
2023/05/08 04:00:08;;;;;;;807.87;720.90;;;12.00;99.90;;;;;;6225538;23;20904;-86
2023/05/08 04:02:44;;;;;;;815.33;728.37;;;11.90;99.90;;;;;;6215579;23;20424;-86
2023/05/08 04:05:20;;;;;;;823.43;735.90;;;11.80;99.90;;;;;;6216101;23;20414;-87
2023/05/08 04:07:52;;;;;;;816.97;730.70;;;11.70;99.90;;;;;;6215945;23;20396;-87
2023/05/08 04:10:25;;;;;;;845.40;756.87;;;11.70;99.90;;;;;;6225247;23;20393;-88
2023/05/08 04:13:04;;;;;;;845.60;755.97;;;11.60;99.90;;;;;;6215643;23;20401;-87
2023/05/08 04:15:34;;;;;;;868.67;778.03;;;11.60;99.90;;;;;;6215996;23;20396;-87
2023/05/08 04:18:06;;;;;;;863.20;771.50;;;11.50;99.90;;;;;;6225666;23;20932;-88
2023/05/08 04:20:34;;;;;;;837.60;746.93;;;11.50;99.90;;;;;;6215823;23;20396;-87
2023/05/08 04:30:22;;;;;;;843.93;752.03;;;11.70;99.90;;;;;;6225171;23;20372;-89
2023/05/08 04:33:38;;;;;;;861.10;767.80;;;11.70;99.90;;;;;;6215645;23;20884;-88
2023/05/08 04:36:11;;;;;;;835.97;735.90;;;11.80;99.90;;;;;;6207264;23;20466;-86
2023/05/08 04:38:44;;;;;;;833.90;740.87;;;11.90;99.90;;;;;;6215231;23;20479;-87
2023/05/08 04:41:11;;;;;;;840.63;747.33;;;11.80;99.90;;;;;;6215434;23;20416;-86
2023/05/08 04:43:38;;;;;;;853.43;759.53;;;12.00;99.90;;;;;;6225569;23;20466;-87
2023/05/08 04:46:07;;;;;;;831.47;735.50;;;11.90;99.90;;;;;;6215131;23;20508;-87
2023/05/08 04:48:34;;;;;;;839.97;747.77;;;11.90;99.90;;;;;;6215150;23;20419;-85
2023/05/08 04:51:01;;;;;;;860.17;766.60;;;11.90;99.90;;;;;;6213932;23;20418;-87
2023/05/08 04:53:28;;;;;;;854.13;761.10;;;11.90;99.90;;;;;;6214840;23;20463;-86
2023/05/08 04:55:58;;;;;;;842.00;750.10;;;12.10;99.90;;;;;;6224427;23;20424;-85
2023/05/08 04:58:25;;;;;;;846.90;755.00;;;11.90;99.90;;;;;;6214281;23;20416;-85
2023/05/08 05:00:51;;;;;;;838.97;747.40;;;12.00;99.90;;;;;;6213863;23;20921;-85
2023/05/08 05:03:20;;;;;;;843.63;752.07;;;12.00;99.90;;;;;;6215222;23;20400;-85
2023/05/08 05:05:46;;;;;;;849.87;756.07;;;12.10;99.90;;;;;;6214152;23;20473;-85
2023/05/08 05:08:13;;;;;;;843.37;750.57;;;12.30;99.90;;;;;;6214897;23;20507;-84
2023/05/08 05:10:40;;;;;;;840.03;747.53;;;12.40;99.90;;;;;;6214138;23;20451;-85
2023/05/08 05:13:07;;;;;;;840.60;742.57;;;12.50;99.90;;;;;;6214400;23;20418;-85
2023/05/08 05:15:34;;;;;;;859.67;757.03;;;12.70;99.90;;;;;;6214015;23;20446;-84
2023/05/08 05:18:00;;;;;;;854.13;753.93;;;12.80;99.90;;;;;;6214309;23;20415;-85
2023/05/08 05:20:29;;;;;;;863.40;764.47;;;13.10;99.90;;;;;;6214134;23;20423;-85
2023/05/08 05:22:56;;;;;;;850.43;755.83;;;13.20;99.90;;;;;;6214632;23;20499;-85
2023/05/08 05:25:23;;;;;;;831.63;744.10;;;13.50;99.90;;;;;;6214552;23;20902;-85
2023/05/08 05:27:50;;;;;;;763.03;685.40;;;14.10;99.90;;;;;;6214100;23;20496;-85
2023/05/08 05:30:17;;;;;;;742.33;671.93;;;14.60;99.90;;;;;;6214310;23;20896;-85
2023/05/08 05:32:44;;;;;;;755.50;689.67;;;14.80;99.90;;;;;;6214832;23;20462;-86
2023/05/08 05:35:11;;;;;;;771.17;711.77;;;15.00;99.90;;;;;;6214121;23;20435;-86
2023/05/08 05:37:39;;;;;;;740.33;689.13;;;15.10;99.90;;;;;;6214959;23;20742;-85
2023/05/08 05:40:07;;;;;;;671.53;631.23;;;15.10;99.90;;;;;;6224757;23;20410;-86
2023/05/08 05:42:34;;;;;;;586.70;555.53;;;15.10;99.90;;;;;;6214460;23;20460;-85
2023/05/08 05:45:01;;;;;;;548.07;520.33;;;15.20;99.90;;;;;;6214185;23;20498;-86
2023/05/08 05:47:28;;;;;;;481.73;459.70;;;15.30;99.90;;;;;;6214242;23;20415;-85
2023/05/08 05:49:55;;;;;;;361.83;347.73;;;15.40;99.90;;;;;;6213933;23;20738;-85
2023/05/08 05:52:21;;;;;;;314.33;302.40;;;15.50;99.90;;;;;;6214506;23;20419;-85
2023/05/08 05:54:50;;;;;;;199.77;192.27;;;15.70;99.90;;;;;;6214705;23;20438;-86
2023/05/08 05:57:16;;;;;;;165.30;159.10;;;15.80;99.90;;;;;;6214646;23;20434;-86
2023/05/08 05:59:43;;;;;;;66.07;62.77;;;16.10;99.90;;;;;;6214217;23;20446;-86
2023/05/08 06:02:15;;;;;;;53.33;50.47;;;16.00;99.90;;;;;;6214147;23;20471;-87
2023/05/08 06:04:42;;;;;;;64.60;61.40;;;15.90;99.90;;;;;;6215909;23;20395;-86
2023/05/08 06:07:08;;;;;;;113.53;109.03;;;15.60;99.90;;;;;;6217088;23;20901;-86
2023/05/08 06:09:35;;;;;;;191.17;183.70;;;15.60;99.90;;;;;;6216898;23;20412;-86
2023/05/08 06:12:04;;;;;;;290.50;280.70;;;15.40;99.90;;;;;;6226887;23;20425;-86
2023/05/08 06:14:30;;;;;;;403.57;388.97;;;15.40;99.90;;;;;;6226754;23;20763;-86
2023/05/08 06:16:58;;;;;;;470.80;453.13;;;15.40;99.90;;;;;;6217040;23;20411;-86
2023/05/08 06:19:27;;;;;;;497.37;478.27;;;15.40;99.90;;;;;;6215915;23;20415;-84
2023/05/08 06:21:54;;;;;;;479.73;461.57;;;15.30;99.90;;;;;;6215758;23;20450;-85
2023/05/08 06:24:22;;;;;;;540.83;518.53;;;15.30;99.90;;;;;;6216204;23;20454;-84
2023/05/08 06:26:49;;;;;;;610.77;582.97;;;15.30;99.90;;;;;;6216169;23;20959;-85
2023/05/08 06:29:17;;;;;;;604.17;575.47;;;15.40;99.90;;;;;;6216501;23;20414;-84
2023/05/08 06:31:44;;;;;;;601.07;571.77;;;15.50;99.90;;;;;;6216491;23;20421;-84
2023/05/08 06:34:11;;;;;;;379.90;365.43;;;16.10;99.90;;;;;;6216557;23;20817;-85
2023/05/08 06:36:37;;;;;;;131.30;125.80;;;16.50;99.90;;;;;;6216316;23;20413;-86
2023/05/08 06:39:05;;;;;;;28.00;25.70;;;17.00;99.90;;;;;;6216221;23;20414;-85
2023/05/08 06:41:32;;;;;;;17.27;15.47;;;17.20;99.90;;;;;;6214369;23;20470;-85
2023/05/08 06:43:59;;;;;;;22.70;15.30;;;17.40;99.90;;;;;;6215467;23;21001;-85
2023/05/08 06:46:28;;;;;;;18.07;14.70;;;17.30;99.90;;;;;;6215446;23;20504;-85
2023/05/08 06:48:55;;;;;;;18.83;14.17;;;17.60;99.90;;;;;;6216074;23;20412;-85
2023/05/08 06:51:22;;;;;;;18.70;12.77;;;17.70;99.90;;;;;;6216414;23;20416;-89
2023/05/08 06:53:49;;;;;;;15.40;12.67;;;17.70;99.90;;;;;;6216086;23;20488;-88
2023/05/08 06:56:16;;;;;;;15.03;11.40;;;17.60;99.90;;;;;;6216668;23;20436;-88
2023/05/08 06:58:42;;;;;;;15.60;13.20;;;17.40;99.90;;;;;;6215195;23;20414;-88
2023/05/08 07:01:09;;;;;;;18.73;13.50;;;17.30;99.90;;;;;;6215924;23;20424;-87
2023/05/08 07:03:40;;;;;;;18.50;13.83;;;17.20;99.90;;;;;;6216284;23;20414;-87
2023/05/08 07:06:08;;;;;;;21.47;16.90;;;17.10;99.90;;;;;;6216137;23;20748;-87
2023/05/08 07:08:35;;;;;;;19.10;17.10;;;17.30;99.90;;;;;;6216686;23;20455;-87
2023/05/08 07:11:05;;;;;;;17.57;15.87;;;17.40;99.90;;;;;;6216067;23;20849;-87
2023/05/08 07:13:32;;;;;;;21.90;17.97;;;17.50;99.90;;;;;;6216491;23;20413;-87
2023/05/08 07:16:02;;;;;;;20.10;16.00;;;17.70;99.90;;;;;;6215079;23;20439;-87
2023/05/08 07:18:29;;;;;;;20.67;17.73;;;17.80;99.90;;;;;;6215986;23;20502;-87
2023/05/08 07:20:57;;;;;;;20.80;17.87;;;17.90;99.90;;;;;;6215978;23;20422;-86
2023/05/08 07:23:25;;;;;;;20.00;17.57;;;18.20;99.90;;;;;;6215755;23;20955;-87
2023/05/08 07:25:53;;;;;;;19.77;15.73;;;18.40;99.90;;;;;;6215943;23;20739;-87
2023/05/08 07:28:20;;;;;;;16.93;15.10;;;18.40;99.90;;;;;;6215370;23;20450;-87
2023/05/08 07:30:50;;;;;;;23.05;19.83;;;18.70;99.90;;;;;;6215112;23;20738;-88
2023/05/08 07:33:17;;;;;;;21.20;16.10;;;18.90;99.90;;;;;;6216153;23;20169;-87
2023/05/08 07:35:44;;;;;;;24.83;15.93;;;19.00;99.90;;;;;;6215940;23;20446;-87
2023/05/08 07:38:12;;;;;;;20.93;16.43;;;19.20;99.90;;;;;;6215911;23;20499;-87
2023/05/08 07:40:42;;;;;;;18.57;14.87;;;19.30;99.90;;;;;;6215886;23;20751;-87
2023/05/08 07:43:09;;;;;;;17.08;14.60;;;19.40;99.90;;;;;;6216271;23;20413;-87
2023/05/08 07:45:36;;;;;;;18.87;14.60;;;19.30;99.90;;;;;;6216060;23;20218;-88
2023/05/08 07:48:04;;;;;;;19.07;15.00;;;19.60;99.90;;;;;;6216556;23;20412;-89
2023/05/08 07:50:33;;;;;;;17.03;13.27;;;19.70;99.90;;;;;;6226016;23;20730;-88
2023/05/08 07:53:00;;;;;;;13.63;11.50;;;19.80;99.90;;;;;;6216539;23;20411;-88
2023/05/08 07:55:29;;;;;;;16.70;13.43;;;19.60;99.90;;;;;;6215983;23;20452;-89
2023/05/08 07:57:57;;;;;;;14.40;12.43;;;19.80;99.90;;;;;;6215951;23;20415;-88
2023/05/08 08:00:26;;;;;;;16.40;12.47;;;19.90;99.90;;;;;;6216209;23;20446;-88
2023/05/08 08:02:53;;;;;;;17.33;12.20;;;19.80;99.90;;;;;;6215963;23;20420;-88
2023/05/08 08:05:20;;;;;;;14.90;10.77;;;20.10;99.90;;;;;;6216023;23;20436;-88
2023/05/08 08:07:47;;;;;;;15.43;12.50;;;20.10;99.90;;;;;;6216361;23;20418;-88
2023/05/08 08:10:14;;;;;;;17.03;12.33;;;19.90;99.90;;;;;;6225620;23;20409;-88
2023/05/08 08:12:42;;;;;;;19.20;12.57;;;20.00;99.90;;;;;;6216196;23;20415;-88
2023/05/08 08:15:09;;;;;;;17.67;13.33;;;20.10;99.90;;;;;;6215928;23;20436;-89
2023/05/08 08:17:36;;;;;;;15.00;11.43;;;20.20;99.90;;;;;;6216132;23;20415;-89
2023/05/08 08:20:04;;;;;;;15.30;10.80;;;20.50;99.90;;;;;;6215025;23;20442;-88
2023/05/08 08:22:30;;;;;;;13.87;10.20;;;20.80;99.90;;;;;;6215944;23;20412;-88
2023/05/08 08:24:57;;;;;;;12.77;10.77;;;21.20;99.90;;;;;;6215814;23;20439;-88
2023/05/08 08:27:24;;;;;;;12.67;9.30;;;21.50;99.90;;;;;;6215549;23;20419;-89
2023/05/08 08:29:52;;;;;;;13.00;9.90;;;22.10;99.90;;;;;;6215517;23;20426;-88
2023/05/08 08:32:19;;;;;;;11.77;9.30;;;22.30;99.90;;;;;;6215789;23;20418;-89
2023/05/08 08:34:46;;;;;;;12.70;8.10;;;22.80;98.70;;;;;;6215915;23;20476;-88
2023/05/08 08:37:13;;;;;;;11.33;8.30;;;22.90;96.30;;;;;;6215651;23;20421;-88
2023/05/08 08:39:40;;;;;;;11.50;9.10;;;23.10;95.70;;;;;;6215434;23;20739;-88
2023/05/08 08:42:07;;;;;;;11.17;8.70;;;23.30;94.30;;;;;;6225504;23;20409;-89
2023/05/08 08:44:36;;;;;;;11.13;8.63;;;23.50;94.50;;;;;;6215436;23;20946;-87
2023/05/08 08:47:06;;;;;;;14.50;9.47;;;23.30;91.80;;;;;;6215702;23;20419;-88
2023/05/08 08:49:35;;;;;;;15.10;9.93;;;23.50;91.50;;;;;;6215473;23;20791;-88
2023/05/08 08:52:06;;;;;;;10.70;8.90;;;23.70;91.00;;;;;;6215375;23;20499;-88
2023/05/08 08:54:35;;;;;;;11.10;8.60;;;23.70;91.10;;;;;;6215116;23;20881;-89
2023/05/08 08:57:06;;;;;;;12.70;9.90;;;24.00;89.80;;;;;;6215194;23;20415;-88
2023/05/08 08:59:34;;;;;;;14.00;9.07;;;23.70;89.40;;;;;;6215030;23;20396;-89
2023/05/08 09:02:10;;;;;;;12.37;8.53;;;23.80;88.10;;;;;;6215111;23;20498;-88
2023/05/08 09:04:37;;;;;;;12.47;10.20;;;24.50;90.20;;;;;;6215250;23;20402;-89
2023/05/08 09:07:07;;;;;;;11.17;8.77;;;24.50;84.30;;;;;;6215215;23;20412;-88
2023/05/08 09:09:36;;;;;;;19.20;8.80;;;24.90;82.60;;;;;;6215264;23;20930;-88
2023/05/08 09:12:03;;;;;;;12.17;8.80;;;25.10;82.70;;;;;;6215293;23;20462;-88
2023/05/08 09:14:30;;;;;;;12.60;8.90;;;25.30;77.20;;;;;;6215254;23;20435;-88
2023/05/08 09:16:57;;;;;;;11.60;7.77;;;25.30;75.60;;;;;;6215154;23;20450;-88
2023/05/08 09:19:28;;;;;;;14.93;8.87;;;24.80;75.50;;;;;;6215209;23;20412;-88
2023/05/08 09:21:54;;;;;;;9.40;7.27;;;24.90;77.50;;;;;;6215355;23;20415;-88
2023/05/08 09:24:22;;;;;;;10.50;7.80;;;25.00;74.70;;;;;;6214756;23;20910;-88
2023/05/08 09:26:49;;;;;;;11.20;7.80;;;24.80;74.50;;;;;;6214889;23;20411;-88
2023/05/08 09:29:17;;;;;;;11.00;7.03;;;24.80;72.90;;;;;;6215022;23;20438;-88
2023/05/08 09:31:46;;;;;;;18.70;7.80;;;25.20;71.90;;;;;;6215107;23;20412;-88
2023/05/08 09:34:23;;;;;;;12.60;8.77;;;25.00;72.20;;;;;;6224934;23;20409;-88
2023/05/08 09:36:51;;;;;;;10.60;7.23;;;24.80;71.40;;;;;;6215030;23;20432;-88
2023/05/08 09:39:23;;;;;;;9.97;7.07;;;25.10;70.00;;;;;;6214715;23;20412;-87
2023/05/08 09:41:57;;;;;;;9.60;6.90;;;25.80;69.80;;;;;;6214627;23;20427;-88
2023/05/08 09:44:24;;;;;;;11.13;7.00;;;26.60;63.30;;;;;;6215023;23;20404;-88
2023/05/08 09:46:51;;;;;;;9.17;6.90;;;26.30;59.50;;;;;;6215119;23;20412;-89
2023/05/08 09:49:19;;;;;;;11.00;7.83;;;26.50;59.90;;;;;;6214816;23;20412;-88
2023/05/08 09:51:53;;;;;;;10.30;7.53;;;26.10;60.40;;;;;;6214681;23;20547;-88
2023/05/08 09:54:20;;;;;;;11.43;7.17;;;26.10;62.80;;;;;;6215027;23;20725;-88
2023/05/08 09:56:47;;;;;;;9.27;6.97;;;25.90;62.30;;;;;;6214751;23;20439;-88
2023/05/08 09:59:26;;;;;;;8.63;6.30;;;25.00;57.90;;;;;;6214877;23;20411;-88
2023/05/08 10:01:53;;;;;;;10.80;7.23;;;25.30;62.10;;;;;;6214730;23;20483;-88
2023/05/08 10:04:32;;;;;;;11.40;6.50;;;25.30;64.70;;;;;;6214767;23;20435;-88
2023/05/08 10:07:01;;;;;;;9.27;5.63;;;25.40;62.80;;;;;;6214885;23;20392;-87
2023/05/08 10:09:28;;;;;;;10.63;5.97;;;25.40;62.20;;;;;;6214715;23;20517;-88
2023/05/08 10:11:55;;;;;;;8.97;6.07;;;25.00;61.00;;;;;;6215175;23;20416;-88
2023/05/08 10:14:23;;;;;;;8.70;6.10;;;25.30;64.60;;;;;;6214373;23;20412;-88
2023/05/08 10:16:52;;;;;;;12.60;6.57;;;25.40;58.20;;;;;;6214818;23;20468;-88
2023/05/08 10:19:20;;;;;;;7.47;4.77;;;25.10;57.90;;;;;;6214259;23;20415;-88
2023/05/08 10:21:48;;;;;;;8.87;4.60;;;25.40;61.80;;;;;;6214799;23;20416;-87
2023/05/08 10:24:18;;;;;;;9.87;4.67;;;25.70;57.40;;;;;;6214834;23;20439;-88
2023/05/08 10:26:55;;;;;;;6.97;4.20;;;25.90;56.90;;;;;;6214806;23;20746;-88
2023/05/08 10:29:28;;;;;;;7.03;3.80;;;26.20;53.70;;;;;;6214757;23;20422;-88
2023/05/08 10:31:59;;;;;;;7.30;3.77;;;25.90;53.70;;;;;;6214475;23;20447;-88
2023/05/08 10:34:31;;;;;;;6.27;3.87;;;25.80;52.60;;;;;;6214824;23;20392;-88
2023/05/08 10:36:58;;;;;;;6.00;3.07;;;25.40;54.60;;;;;;6214530;23;20424;-87
2023/05/08 10:39:28;;;;;;;6.50;3.40;;;25.10;56.00;;;;;;6224216;23;20407;-88
2023/05/08 10:41:56;;;;;;;5.93;3.20;;;25.40;53.00;;;;;;6214822;23;20479;-88
2023/05/08 10:44:24;;;;;;;7.40;4.40;;;25.00;52.60;;;;;;6214438;23;20418;-87
2023/05/08 10:46:55;;;;;;;9.10;4.00;;;24.70;56.00;;;;;;6214500;23;20892;-88
2023/05/08 10:49:31;;;;;;;7.13;3.60;;;24.70;55.20;;;;;;6214620;23;20402;-88
2023/05/08 10:52:12;;;;;;;10.00;6.20;;;24.80;57.70;;;;;;6215744;23;20721;-87
2023/05/08 10:55:03;;;;;;;11.77;7.30;;;24.70;57.60;;;;;;6216069;23;20406;-88
2023/05/08 10:57:30;;;;;;;10.30;5.97;;;24.60;59.70;;;;;;6216478;23;20399;-87
2023/05/08 10:59:57;;;;;;;10.30;5.80;;;24.60;62.20;;;;;;6216042;23;20427;-88
2023/05/08 11:02:28;;;;;;;9.30;6.30;;;24.30;60.00;;;;;;6215998;23;20443;-88
2023/05/08 11:04:55;;;;;;;11.37;6.87;;;24.30;61.30;;;;;;6216043;23;20392;-88
2023/05/08 11:07:30;;;;;;;10.10;7.20;;;24.40;60.00;;;;;;6216231;23;20411;-87
2023/05/08 11:10:13;;;;;;;8.97;6.60;;;24.60;61.50;;;;;;6216160;23;20392;-87
2023/05/08 11:12:49;;;;;;;13.40;7.07;;;24.70;57.60;;;;;;6215960;23;20446;-87
2023/05/08 11:15:16;;;;;;;11.07;7.27;;;24.40;61.70;;;;;;6215652;23;20434;-85
2023/05/08 11:17:53;;;;;;;10.00;7.43;;;24.30;61.80;;;;;;6215683;23;20728;-86
2023/05/08 11:20:23;;;;;;;11.80;7.43;;;24.70;57.60;;;;;;6215563;23;20407;-86
2023/05/08 11:22:50;;;;;;;12.30;8.10;;;24.90;58.90;;;;;;6216495;23;20494;-87
2023/05/08 11:25:18;;;;;;;11.80;8.50;;;24.30;62.00;;;;;;6215669;23;20930;-88
2023/05/08 11:28:18;;;;;;;11.40;7.30;;;24.10;63.30;;;;;;6216005;23;20416;-87
2023/05/08 11:30:45;;;;;;;11.30;9.10;;;24.50;60.20;;;;;;6215631;23;20395;-87
2023/05/08 11:33:14;;;;;;;11.77;8.87;;;24.40;60.10;;;;;;6215650;23;20412;-87
2023/05/08 11:35:46;;;;;;;12.80;8.77;;;24.40;62.10;;;;;;6215879;23;20523;-87
2023/05/08 11:38:21;;;;;;;11.57;8.20;;;24.30;61.70;;;;;;6215957;23;20403;-87
2023/05/08 11:40:57;;;;;;;12.13;8.03;;;23.80;64.20;;;;;;6215568;23;20725;-87
2023/05/08 11:43:47;;;;;;;9.80;7.30;;;24.40;63.80;;;;;;6216000;23;20441;-87
2023/05/08 11:46:15;;;;;;;12.00;8.33;;;24.10;60.40;;;;;;6215305;23;20480;-87
2023/05/08 11:48:43;;;;;;;14.53;8.20;;;23.50;63.70;;;;;;6215644;23;20418;-87
2023/05/08 11:51:13;;;;;;;9.70;7.17;;;23.50;67.10;;;;;;6215655;23;20416;-86
2023/05/08 11:53:40;;;;;;;8.33;5.57;;;24.70;65.70;;;;;;6215747;23;20393;-87
2023/05/08 11:56:08;;;;;;;7.63;5.57;;;25.60;58.30;;;;;;6215710;23;20432;-87
2023/05/08 11:58:36;;;;;;;10.67;6.77;;;26.10;54.80;;;;;;6215433;23;20424;-87
2023/05/08 12:01:03;;;;;;;10.00;7.53;;;26.20;49.90;;;;;;6215575;23;20405;-87
2023/05/08 12:03:30;;;;;;;8.97;6.47;;;25.60;53.30;;;;;;6225182;23;20966;-87
2023/05/08 12:06:00;;;;;;;10.90;6.30;;;25.00;57.80;;;;;;6215270;23;20447;-87
2023/05/08 12:08:26;;;;;;;8.87;5.83;;;25.00;55.20;;;;;;6225357;23;20503;-88
2023/05/08 12:10:55;;;;;;;13.10;6.90;;;24.90;54.60;;;;;;6214038;23;20411;-87
2023/05/08 12:13:25;;;;;;;10.80;6.20;;;24.60;57.50;;;;;;6215058;23;20423;-87
2023/05/08 12:15:54;;;;;;;8.73;6.30;;;24.80;57.70;;;;;;6215184;23;20432;-87
2023/05/08 12:18:22;;;;;;;9.03;6.27;;;24.90;55.10;;;;;;6225066;23;20716;-87
2023/05/08 12:20:52;;;;;;;9.57;6.00;;;25.10;58.00;;;;;;6214885;23;20412;-88
2023/05/08 12:23:19;;;;;;;9.17;5.80;;;25.60;55.30;;;;;;6214900;23;20412;-88
2023/05/08 12:25:54;;;;;;;7.63;5.60;;;25.90;52.00;;;;;;6215242;23;20507;-88
2023/05/08 12:28:22;;;;;;;7.70;5.77;;;26.50;48.10;;;;;;6215047;23;20478;-87
2023/05/08 12:30:49;;;;;;;8.30;5.83;;;26.50;48.40;;;;;;6214813;23;20412;-87
2023/05/08 12:33:17;;;;;;;8.50;5.97;;;26.40;47.00;;;;;;6214681;23;20461;-87
2023/05/08 12:35:44;;;;;;;10.20;7.20;;;26.60;45.30;;;;;;6214810;23;20418;-88
2023/05/08 12:38:11;;;;;;;9.70;6.80;;;27.00;45.30;;;;;;6214617;23;20503;-87
2023/05/08 12:40:44;;;;;;;12.40;6.13;;;26.40;46.50;;;;;;6213754;23;20418;-84